Main page
METAR-TAF:

METAR-TAF

Airports :

Mahilyow Airport

Mogilev, Belarus

latitude: 53-57-18N, longitude: 030-05-42E, elevation: 194 m

Current weather observation

The report was made 1 hour and 2 minutes ago, at 10:00 UTC
Wind 12 kt from the West
Temperature 3°C
Humidity 81%
Pressure 1004 hPa
Visibility 10 km or more
no clouds below 1500 m and no cumulonimbus

METAR: UMOO 221000Z 27006MPS CAVOK 03/M00 Q1004 R31/290162 NOSIG

Time: 14:02 (11:02 UTC)

Forecast

The report was made 3 hours and 1 minutes ago, at 08:01 UTC
Forecast valid from 22 at 09 UTC to 22 at 18 UTC
Wind 14 kt from the West with gusts up to 23 kt
Visibility: 6000 m
Broken clouds at a height of 900 ft
Temporary
from 22 at 09 UTC to 22 at 18 UTC
Wind 21 kt from the Northwest with gusts up to 31 kt
Visibility: 1200 m
Broken clouds at a height of 300 ft
Broken clouds at a height of 1300 ft, Cumulonimbus.
rain showers, snow

TAF: UMOO 220801Z 2209/2218 27007G12MPS 6000 BKN009 TEMPO 2209/2218 31011G16MPS 1200 SHRASN BKN003 BKN013CB

Weather observations and forecasts of more than 4000 airports (METAR and TAF reports).

The available stations are represented by yellow and red dots on the map.

Hover mouse over dot to see the name of the station.

Then click to see weather observations and forecasts.

To change the map : click on the green buttons with a black cross to zoom in, on the green button with a dash to zoom out, or on the green arrows for adjacent maps.


METAR-TAF: